createdAt,value
2022-07-31T00:00:20.413Z,8.07
2022-07-31T00:02:47.034Z,8.65
2022-07-31T00:05:13.890Z,7.40
2022-07-31T00:07:40.578Z,10.38
2022-07-31T00:10:07.535Z,9.55
2022-07-31T00:12:35.098Z,10.50
2022-07-31T00:15:06.537Z,10.82
2022-07-31T00:17:33.507Z,8.00
2022-07-31T00:19:59.956Z,7.13
2022-07-31T00:22:26.383Z,10.32
2022-07-31T00:24:52.818Z,9.32
2022-07-31T00:27:19.298Z,7.47
2022-07-31T00:29:45.773Z,7.35
2022-07-31T00:32:12.288Z,9.15
2022-07-31T00:34:38.739Z,9.13
2022-07-31T00:37:05.730Z,7.93
2022-07-31T00:39:32.585Z,10.75
2022-07-31T00:41:59.003Z,9.82
2022-07-31T00:44:25.941Z,8.32
2022-07-31T00:46:52.614Z,8.30
2022-07-31T00:49:19.824Z,10.68
2022-07-31T00:51:46.405Z,10.50
2022-07-31T00:54:16.934Z,8.95
2022-07-31T00:56:49.340Z,8.73
2022-07-31T00:59:15.877Z,10.38
2022-07-31T01:01:44.305Z,9.25
2022-07-31T01:04:15.557Z,9.50
2022-07-31T01:06:42.783Z,10.00
2022-07-31T01:09:09.450Z,9.60
2022-07-31T01:11:44.695Z,10.25
2022-07-31T01:14:12.012Z,11.70
2022-07-31T01:16:48.902Z,9.32
2022-07-31T01:19:23.351Z,11.38
2022-07-31T01:22:33.600Z,12.88
2022-07-31T01:25:17.514Z,10.27
2022-07-31T01:30:16.463Z,10.63
2022-07-31T01:32:46.377Z,12.10
2022-07-31T01:35:19.565Z,12.80
2022-07-31T01:37:53.451Z,12.63
2022-07-31T01:40:24.809Z,12.52
2022-07-31T01:42:55.321Z,11.50
2022-07-31T01:45:22.491Z,12.75
2022-07-31T01:47:50.179Z,11.70
2022-07-31T01:50:43.788Z,13.90
2022-07-31T01:53:06.766Z,12.85
2022-07-31T01:56:02.690Z,12.73
2022-07-31T01:58:22.090Z,12.77
2022-07-31T02:00:49.692Z,14.02
2022-07-31T02:03:17.132Z,14.95
2022-07-31T02:05:44.677Z,11.00
2022-07-31T02:08:12.169Z,13.95
2022-07-31T02:10:39.586Z,15.00
2022-07-31T02:13:06.522Z,15.00
2022-07-31T02:15:33.995Z,15.95
2022-07-31T02:18:00.935Z,16.60
2022-07-31T02:20:27.983Z,17.60
2022-07-31T02:22:55.466Z,15.05
2022-07-31T02:25:22.042Z,15.68
2022-07-31T02:27:57.254Z,16.55
2022-07-31T02:30:27.409Z,16.55
2022-07-31T02:33:07.961Z,15.25
2022-07-31T02:35:34.482Z,15.38
2022-07-31T02:38:01.313Z,16.30
2022-07-31T02:40:28.194Z,16.85
2022-07-31T02:42:55.034Z,15.25
2022-07-31T02:45:22.514Z,14.35
2022-07-31T02:47:49.357Z,15.35
2022-07-31T02:50:20.186Z,15.20
2022-07-31T02:52:47.251Z,15.85
2022-07-31T02:55:14.055Z,15.88
2022-07-31T02:57:41.383Z,15.15
2022-07-31T03:00:23.062Z,13.63
2022-07-31T03:02:50.497Z,14.50
2022-07-31T03:05:17.072Z,14.18
2022-07-31T03:07:44.540Z,14.25
2022-07-31T03:10:11.443Z,18.80
2022-07-31T03:12:40.602Z,14.65
2022-07-31T03:15:10.703Z,15.07
2022-07-31T03:17:41.300Z,15.30
2022-07-31T03:20:09.173Z,15.07
2022-07-31T03:22:35.799Z,15.93
2022-07-31T03:25:03.745Z,16.05
2022-07-31T03:27:30.451Z,15.48
2022-07-31T03:29:56.911Z,15.80
2022-07-31T03:32:23.386Z,14.25
2022-07-31T03:34:50.048Z,16.42
2022-07-31T03:37:16.511Z,14.55
2022-07-31T03:39:42.979Z,15.50
2022-07-31T03:42:13.007Z,15.07
2022-07-31T03:44:46.417Z,15.60
2022-07-31T03:47:13.083Z,15.55
2022-07-31T03:49:43.097Z,15.77
2022-07-31T03:52:12.261Z,15.32
2022-07-31T03:54:39.936Z,16.50
2022-07-31T03:57:08.008Z,16.58
2022-07-31T03:59:40.579Z,16.20
2022-07-31T04:02:15.403Z,16.25
2022-07-31T04:04:45.192Z,14.07
2022-07-31T04:07:11.774Z,14.68
2022-07-31T04:09:38.630Z,15.15
2022-07-31T04:12:06.484Z,15.85
2022-07-31T04:14:33.074Z,15.43
2022-07-31T04:16:59.510Z,16.25
2022-07-31T04:19:25.981Z,15.30
2022-07-31T04:21:52.392Z,16.42
2022-07-31T04:24:20.805Z,16.23
2022-07-31T04:26:49.391Z,14.23
2022-07-31T04:29:16.112Z,11.88
2022-07-31T04:31:42.587Z,14.75
2022-07-31T04:34:09.100Z,15.00
2022-07-31T04:36:35.530Z,14.00
2022-07-31T04:39:02.127Z,14.20
2022-07-31T04:41:28.769Z,14.88
2022-07-31T04:43:57.207Z,14.73
2022-07-31T04:46:24.227Z,16.98
2022-07-31T04:48:50.814Z,14.55
2022-07-31T04:51:22.119Z,15.35
2022-07-31T04:53:50.196Z,16.95
2022-07-31T04:56:36.290Z,14.95
2022-07-31T04:59:06.110Z,14.48
2022-07-31T05:01:33.294Z,13.65
2022-07-31T05:04:00.058Z,13.65
2022-07-31T05:06:43.566Z,13.60
2022-07-31T05:09:18.393Z,13.73
2022-07-31T05:11:48.937Z,11.95
2022-07-31T05:14:17.322Z,12.77
2022-07-31T05:16:44.635Z,12.23
2022-07-31T05:19:14.681Z,13.07
2022-07-31T05:21:48.417Z,11.18
2022-07-31T05:24:33.352Z,12.50
2022-07-31T05:27:01.428Z,14.68
2022-07-31T05:29:27.965Z,12.30
2022-07-31T05:31:59.910Z,12.90
2022-07-31T05:34:30.240Z,11.23
2022-07-31T05:37:01.124Z,9.48
2022-07-31T05:39:28.583Z,8.70
2022-07-31T05:41:55.070Z,8.38
2022-07-31T05:44:21.819Z,9.27
2022-07-31T05:46:48.296Z,8.48
2022-07-31T05:49:14.832Z,8.48
2022-07-31T05:51:44.892Z,9.68
2022-07-31T05:54:11.396Z,10.45
2022-07-31T05:56:37.823Z,9.65
2022-07-31T05:59:04.379Z,11.20
2022-07-31T06:01:30.912Z,11.30
2022-07-31T06:03:57.414Z,9.65
2022-07-31T06:06:23.865Z,10.45
2022-07-31T06:08:50.402Z,13.02
2022-07-31T06:11:17.173Z,12.02
2022-07-31T06:13:43.890Z,9.25
2022-07-31T06:16:14.044Z,11.60
2022-07-31T06:18:40.802Z,10.35
2022-07-31T06:21:07.254Z,9.07
2022-07-31T06:23:33.796Z,8.65
2022-07-31T06:26:00.818Z,8.50
2022-07-31T06:28:38.869Z,11.52
2022-07-31T06:31:20.652Z,10.88
2022-07-31T06:33:50.111Z,8.40
2022-07-31T06:36:18.623Z,11.20
2022-07-31T06:38:45.960Z,11.40
2022-07-31T06:41:32.727Z,8.43
2022-07-31T06:43:59.402Z,8.32
2022-07-31T06:46:25.812Z,8.05
2022-07-31T06:48:52.333Z,6.78
2022-07-31T06:51:34.230Z,8.98
2022-07-31T06:54:01.890Z,11.63
2022-07-31T06:56:29.592Z,10.85
2022-07-31T06:58:56.410Z,8.13
2022-07-31T07:01:23.218Z,6.53
2022-07-31T07:03:49.822Z,6.40
2022-07-31T07:06:16.375Z,7.38
2022-07-31T07:08:42.848Z,7.53
2022-07-31T07:11:12.281Z,7.57
2022-07-31T07:13:45.980Z,6.50
2022-07-31T07:16:14.053Z,7.88
2022-07-31T07:18:40.568Z,7.05
2022-07-31T07:21:07.162Z,5.13
2022-07-31T07:23:34.211Z,6.43
2022-07-31T07:26:00.710Z,6.97
2022-07-31T07:28:30.186Z,5.40
2022-07-31T07:30:57.878Z,5.63
2022-07-31T07:33:40.160Z,8.82
2022-07-31T07:36:24.155Z,5.07
2022-07-31T07:38:53.367Z,4.68
2022-07-31T07:41:20.030Z,6.68
2022-07-31T07:43:51.784Z,4.30
2022-07-31T07:46:19.795Z,5.60
2022-07-31T07:48:46.239Z,4.13
2022-07-31T07:51:12.649Z,3.78
2022-07-31T07:53:40.346Z,3.88
2022-07-31T07:56:06.826Z,4.40
2022-07-31T07:58:33.273Z,3.53
2022-07-31T08:00:59.811Z,5.00
2022-07-31T08:03:49.213Z,3.15
2022-07-31T08:06:12.707Z,5.47
2022-07-31T08:08:39.193Z,4.45
2022-07-31T08:11:05.666Z,3.45
2022-07-31T08:13:32.115Z,4.72
2022-07-31T08:15:58.601Z,6.53
2022-07-31T08:18:27.242Z,2.72
2022-07-31T08:20:56.270Z,3.83
2022-07-31T08:23:22.763Z,3.63
2022-07-31T08:25:49.234Z,3.20
2022-07-31T08:28:19.455Z,2.78
2022-07-31T08:30:50.612Z,3.17
2022-07-31T08:33:17.090Z,3.42
2022-07-31T08:35:47.456Z,2.83
2022-07-31T08:38:18.536Z,4.95
2022-07-31T08:40:45.734Z,3.72
2022-07-31T08:44:02.285Z,7.43
2022-07-31T08:46:02.783Z,3.03
2022-07-31T08:49:16.550Z,3.95
2022-07-31T08:51:51.110Z,5.60
2022-07-31T08:54:19.266Z,4.45
2022-07-31T08:56:52.134Z,2.63
2022-07-31T08:59:19.671Z,4.00
2022-07-31T09:01:46.184Z,3.53
2022-07-31T09:04:12.661Z,3.55
2022-07-31T09:06:39.364Z,4.55
2022-07-31T09:09:06.183Z,3.47
2022-07-31T09:11:33.943Z,4.85
2022-07-31T09:14:03.354Z,2.63
2022-07-31T09:16:31.309Z,3.05
2022-07-31T09:18:59.987Z,3.05
2022-07-31T09:21:27.024Z,4.13
2022-07-31T09:23:56.595Z,2.97
2022-07-31T09:26:33.182Z,4.35
2022-07-31T09:29:00.132Z,3.42
2022-07-31T09:31:32.906Z,4.60
2022-07-31T09:33:59.400Z,4.30
2022-07-31T09:36:25.830Z,3.67
2022-07-31T09:38:52.302Z,5.40
2022-07-31T09:42:02.088Z,3.28
2022-07-31T09:44:09.510Z,4.15
2022-07-31T09:46:45.080Z,4.18
2022-07-31T09:49:11.704Z,4.15
2022-07-31T09:51:43.311Z,2.92
2022-07-31T09:54:26.911Z,4.32
2022-07-31T09:56:53.899Z,3.20
2022-07-31T09:59:20.323Z,2.42
2022-07-31T10:01:50.734Z,3.40
2022-07-31T10:04:18.816Z,2.92
2022-07-31T10:06:50.834Z,4.18
2022-07-31T10:09:19.398Z,4.10
2022-07-31T10:11:48.173Z,5.18
2022-07-31T10:14:22.536Z,4.50
2022-07-31T10:16:55.151Z,4.18
2022-07-31T10:19:22.547Z,4.03
2022-07-31T10:21:57.227Z,2.28
2022-07-31T10:24:28.265Z,4.53
2022-07-31T10:27:01.312Z,2.00
2022-07-31T10:29:32.563Z,2.78
2022-07-31T10:31:59.721Z,3.75
2022-07-31T10:34:26.608Z,2.55
2022-07-31T10:36:54.950Z,2.28
2022-07-31T10:39:31.396Z,3.60
2022-07-31T10:42:16.126Z,3.65
2022-07-31T10:44:46.202Z,2.58
2022-07-31T10:47:14.087Z,3.47
2022-07-31T10:49:45.032Z,3.08
2022-07-31T10:52:11.568Z,2.70
2022-07-31T10:54:46.500Z,2.55
2022-07-31T10:57:26.018Z,3.58
2022-07-31T10:59:52.754Z,4.05
2022-07-31T11:02:33.771Z,3.85
2022-07-31T11:05:29.612Z,3.17
2022-07-31T11:08:06.383Z,4.00
2022-07-31T11:10:34.100Z,3.63
2022-07-31T11:13:10.932Z,4.20
2022-07-31T11:15:40.211Z,3.13
2022-07-31T11:18:24.383Z,3.78
2022-07-31T11:21:06.173Z,4.65
2022-07-31T11:24:02.411Z,4.03
2022-07-31T11:26:33.599Z,3.83
2022-07-31T11:30:00.381Z,3.90
2022-07-31T11:31:55.839Z,2.45
2022-07-31T11:34:22.291Z,4.40
2022-07-31T11:36:51.532Z,4.15
2022-07-31T11:39:18.286Z,4.00
2022-07-31T11:41:45.731Z,4.43
2022-07-31T11:44:12.266Z,4.72
2022-07-31T11:46:38.724Z,7.13
2022-07-31T11:49:05.723Z,6.85
2022-07-31T11:51:32.286Z,4.30
2022-07-31T11:53:59.926Z,4.55
2022-07-31T11:56:27.220Z,4.22
2022-07-31T11:58:57.970Z,4.80
2022-07-31T12:01:29.277Z,3.30
2022-07-31T12:03:57.415Z,5.03
2022-07-31T12:06:24.228Z,5.07
2022-07-31T12:08:52.201Z,3.30
2022-07-31T12:11:19.947Z,4.15
2022-07-31T12:13:47.999Z,5.35
2022-07-31T12:16:15.264Z,5.13
2022-07-31T12:18:56.315Z,2.85
2022-07-31T12:21:31.166Z,6.38
2022-07-31T12:23:58.264Z,3.85
2022-07-31T12:26:32.979Z,4.45
2022-07-31T12:29:04.418Z,3.55
2022-07-31T12:31:43.286Z,4.95
2022-07-31T12:34:09.802Z,5.45
2022-07-31T12:36:36.283Z,4.13
2022-07-31T12:39:04.752Z,4.88
2022-07-31T12:41:31.569Z,4.15
2022-07-31T12:44:14.458Z,4.38
2022-07-31T12:46:41.319Z,3.88
2022-07-31T12:49:08.453Z,3.38
2022-07-31T12:51:44.807Z,4.68
2022-07-31T12:54:14.006Z,3.80
2022-07-31T12:56:41.561Z,5.15
2022-07-31T12:59:08.791Z,3.15
2022-07-31T13:01:35.402Z,3.03
2022-07-31T13:04:03.305Z,3.88
2022-07-31T13:06:30.608Z,5.45
2022-07-31T13:08:57.357Z,3.95
2022-07-31T13:11:30.406Z,2.92
2022-07-31T13:14:18.377Z,2.85
2022-07-31T13:16:46.006Z,4.18
2022-07-31T13:19:13.574Z,4.13
2022-07-31T13:21:49.183Z,4.38
2022-07-31T13:24:20.532Z,2.83
2022-07-31T13:26:48.386Z,3.28
2022-07-31T13:29:15.035Z,4.22
2022-07-31T13:31:41.777Z,3.50
2022-07-31T13:34:08.207Z,2.33
2022-07-31T13:36:39.159Z,4.78
2022-07-31T13:39:09.637Z,4.45
2022-07-31T13:41:36.619Z,3.78
2022-07-31T13:44:05.451Z,4.03
2022-07-31T13:46:31.947Z,2.85
2022-07-31T13:48:59.473Z,4.30
2022-07-31T13:51:28.869Z,5.65
2022-07-31T13:53:55.616Z,3.50
2022-07-31T13:56:42.018Z,2.55
2022-07-31T13:59:08.759Z,10.57
2022-07-31T14:02:03.405Z,4.60
2022-07-31T14:04:23.605Z,2.60
2022-07-31T14:06:51.054Z,3.38
2022-07-31T14:09:19.227Z,3.42
2022-07-31T14:11:45.736Z,3.60
2022-07-31T14:14:12.191Z,4.13
2022-07-31T14:16:39.695Z,2.70
2022-07-31T14:19:06.221Z,3.35
2022-07-31T14:21:34.002Z,2.67
2022-07-31T14:24:00.609Z,2.80
2022-07-31T14:26:27.063Z,1.70
2022-07-31T14:28:53.526Z,2.45
2022-07-31T14:31:19.979Z,2.70
2022-07-31T14:33:46.420Z,2.65
2022-07-31T14:36:12.999Z,2.15
2022-07-31T14:38:39.541Z,2.92
2022-07-31T14:41:07.182Z,3.42
2022-07-31T14:43:33.879Z,2.45
2022-07-31T14:46:00.324Z,3.17
2022-07-31T14:48:27.336Z,3.17
2022-07-31T14:50:53.938Z,2.75
2022-07-31T14:53:20.340Z,3.35
2022-07-31T14:55:46.757Z,3.15
2022-07-31T14:58:13.183Z,2.30
2022-07-31T15:00:39.812Z,4.47
2022-07-31T15:03:07.041Z,4.88
2022-07-31T15:06:43.844Z,5.25
2022-07-31T15:08:19.911Z,5.20
2022-07-31T15:10:46.339Z,7.53
2022-07-31T15:13:13.160Z,5.15
2022-07-31T15:15:39.684Z,6.68
2022-07-31T15:18:06.188Z,5.40
2022-07-31T15:20:34.280Z,6.80
2022-07-31T15:23:01.605Z,6.93
2022-07-31T15:25:28.109Z,6.03
2022-07-31T15:27:54.629Z,6.20
2022-07-31T15:30:21.576Z,6.57
2022-07-31T15:32:48.166Z,6.75
2022-07-31T15:35:14.702Z,5.47
2022-07-31T15:37:44.181Z,4.88
2022-07-31T15:40:12.904Z,9.73
2022-07-31T15:42:40.920Z,5.75
2022-07-31T15:45:13.885Z,5.95
2022-07-31T15:47:41.211Z,5.53
2022-07-31T15:50:09.862Z,6.78
2022-07-31T15:52:36.511Z,5.57
2022-07-31T15:55:03.640Z,8.07
2022-07-31T15:57:30.291Z,8.63
2022-07-31T15:59:56.792Z,5.47
2022-07-31T16:02:24.199Z,6.78
2022-07-31T16:04:54.159Z,5.75
2022-07-31T16:08:31.471Z,6.80
2022-07-31T16:10:16.342Z,5.28
2022-07-31T16:12:45.575Z,8.57
2022-07-31T16:15:12.634Z,6.95
2022-07-31T16:17:39.572Z,6.45
2022-07-31T16:20:09.960Z,7.82
2022-07-31T16:22:37.874Z,5.82
2022-07-31T16:25:05.474Z,7.30
2022-07-31T16:27:31.908Z,4.70
2022-07-31T16:30:01.810Z,4.70
2022-07-31T16:32:29.116Z,7.47
2022-07-31T16:35:00.134Z,6.93
2022-07-31T16:37:50.545Z,5.20
2022-07-31T16:40:29.297Z,8.70
2022-07-31T16:43:46.824Z,5.35
2022-07-31T16:45:49.515Z,5.47
2022-07-31T16:48:15.963Z,4.20
2022-07-31T16:50:42.377Z,5.70
2022-07-31T16:53:08.786Z,4.10
2022-07-31T16:56:01.031Z,4.80
2022-07-31T16:58:26.491Z,5.22
2022-07-31T17:00:53.209Z,5.35
2022-07-31T17:03:58.528Z,4.80
2022-07-31T17:06:10.138Z,6.32
2022-07-31T17:08:38.000Z,5.65
2022-07-31T17:11:04.511Z,5.85
2022-07-31T17:13:30.925Z,4.28
2022-07-31T17:15:57.475Z,4.57
2022-07-31T17:18:25.359Z,6.20
2022-07-31T17:20:53.399Z,3.85
2022-07-31T17:23:42.701Z,4.63
2022-07-31T17:26:09.734Z,5.47
2022-07-31T17:28:47.290Z,4.80
2022-07-31T17:31:13.737Z,4.65
2022-07-31T17:33:58.454Z,4.35
2022-07-31T17:36:26.346Z,4.40
2022-07-31T17:38:52.834Z,4.47
2022-07-31T17:41:25.418Z,4.03
2022-07-31T17:43:54.961Z,5.70
2022-07-31T17:46:34.234Z,3.30
2022-07-31T17:49:09.064Z,3.45
2022-07-31T17:51:35.524Z,5.88
2022-07-31T17:54:02.138Z,3.92
2022-07-31T17:56:29.557Z,3.80
2022-07-31T17:59:03.609Z,5.18
2022-07-31T18:01:30.361Z,3.72
2022-07-31T18:03:56.818Z,3.78
2022-07-31T18:06:23.259Z,6.40
2022-07-31T18:08:49.751Z,8.00
2022-07-31T18:11:16.194Z,7.47
2022-07-31T18:13:48.683Z,5.13
2022-07-31T18:16:19.145Z,7.22
2022-07-31T18:18:45.887Z,7.95
2022-07-31T18:21:12.385Z,6.60
2022-07-31T18:23:43.525Z,7.97
2022-07-31T18:26:13.882Z,9.15
2022-07-31T18:28:40.492Z,10.07
2022-07-31T18:31:30.744Z,9.65
2022-07-31T18:33:53.441Z,10.35
2022-07-31T18:36:21.178Z,10.63
2022-07-31T18:38:47.860Z,12.02
2022-07-31T18:41:14.362Z,11.95
2022-07-31T18:43:40.823Z,12.27
2022-07-31T18:46:07.360Z,12.57
2022-07-31T18:48:33.924Z,13.43
2022-07-31T18:51:04.422Z,11.88
2022-07-31T18:53:32.339Z,11.23
2022-07-31T18:55:58.830Z,10.50
2022-07-31T18:58:25.334Z,10.02
2022-07-31T19:00:55.094Z,10.25
2022-07-31T19:03:21.958Z,9.73
2022-07-31T19:05:50.054Z,9.15
2022-07-31T19:08:16.612Z,8.95
2022-07-31T19:10:43.025Z,7.63
2022-07-31T19:13:09.474Z,8.57
2022-07-31T19:15:46.329Z,7.18
2022-07-31T19:18:12.799Z,8.10
2022-07-31T19:21:00.103Z,8.50
2022-07-31T19:23:27.468Z,8.57
2022-07-31T19:26:03.855Z,8.75
2022-07-31T19:28:34.193Z,9.82
2022-07-31T19:31:00.820Z,7.95
2022-07-31T19:33:27.255Z,8.07
2022-07-31T19:36:00.372Z,8.52
2022-07-31T19:38:28.085Z,8.57
2022-07-31T19:40:54.690Z,8.80
2022-07-31T19:43:21.177Z,9.15
2022-07-31T19:46:02.543Z,9.73
2022-07-31T19:48:35.866Z,9.35
2022-07-31T19:51:02.482Z,9.20
2022-07-31T19:53:28.886Z,9.52
2022-07-31T19:55:55.396Z,10.40
2022-07-31T19:58:21.951Z,9.55
2022-07-31T20:00:48.783Z,10.43
2022-07-31T20:03:15.232Z,11.27
2022-07-31T20:05:41.717Z,9.98
2022-07-31T20:08:08.138Z,11.15
2022-07-31T20:10:34.656Z,10.93
2022-07-31T20:13:01.062Z,11.75
2022-07-31T20:15:27.550Z,12.48
2022-07-31T20:18:26.586Z,12.90
2022-07-31T20:20:58.863Z,13.05
2022-07-31T20:23:26.333Z,13.07
2022-07-31T20:25:53.394Z,12.50
2022-07-31T20:28:19.855Z,12.85
2022-07-31T20:30:46.298Z,13.23
2022-07-31T20:33:13.231Z,12.35
2022-07-31T20:35:48.852Z,12.70
2022-07-31T20:38:20.775Z,13.73
2022-07-31T20:40:54.643Z,12.68
2022-07-31T20:43:29.020Z,13.45
2022-07-31T20:45:59.795Z,12.73
2022-07-31T20:48:34.752Z,13.02
2022-07-31T20:51:03.586Z,11.90
2022-07-31T20:53:30.352Z,12.95
2022-07-31T20:55:56.808Z,12.98
2022-07-31T20:58:24.366Z,11.55
2022-07-31T21:00:53.509Z,11.68
2022-07-31T21:03:20.832Z,11.80
2022-07-31T21:05:47.610Z,11.85
2022-07-31T21:08:14.213Z,11.90
2022-07-31T21:10:40.729Z,10.85
2022-07-31T21:13:07.231Z,10.55
2022-07-31T21:15:43.229Z,10.48
2022-07-31T21:18:20.907Z,9.82
2022-07-31T21:20:52.374Z,12.60
2022-07-31T21:25:51.687Z,9.13
2022-07-31T21:28:18.805Z,12.75
2022-07-31T21:30:45.511Z,9.85
2022-07-31T21:33:12.102Z,10.00
2022-07-31T21:35:39.985Z,10.93
2022-07-31T21:38:10.237Z,7.85
2022-07-31T21:40:38.913Z,8.80
2022-07-31T21:43:05.873Z,8.90
2022-07-31T21:45:50.914Z,10.15
2022-07-31T21:48:19.367Z,8.45
2022-07-31T21:50:46.203Z,10.15
2022-07-31T21:53:14.411Z,8.73
2022-07-31T21:55:41.093Z,8.57
2022-07-31T21:58:08.985Z,9.13
2022-07-31T22:00:35.465Z,10.48
2022-07-31T22:03:02.877Z,10.55
2022-07-31T22:05:49.152Z,10.55
2022-07-31T22:08:15.708Z,10.38
2022-07-31T22:10:42.150Z,12.52
2022-07-31T22:13:08.650Z,11.27
2022-07-31T22:15:58.600Z,11.38
2022-07-31T22:18:21.756Z,12.68
2022-07-31T22:20:48.328Z,13.73
2022-07-31T22:23:14.889Z,14.15
2022-07-31T22:25:42.705Z,12.98
2022-07-31T22:28:09.479Z,14.90
2022-07-31T22:30:36.017Z,14.00
2022-07-31T22:33:02.965Z,13.98
2022-07-31T22:35:30.232Z,15.13
2022-07-31T22:37:57.003Z,14.95
2022-07-31T22:40:24.539Z,12.90
2022-07-31T22:42:57.431Z,13.60
2022-07-31T22:45:24.209Z,13.60
2022-07-31T22:47:50.870Z,14.63
2022-07-31T22:50:17.684Z,15.18
2022-07-31T22:52:44.179Z,14.52
2022-07-31T22:55:11.701Z,15.27
2022-07-31T22:57:38.303Z,16.27
2022-07-31T23:00:07.842Z,16.90
2022-07-31T23:02:34.431Z,15.90
2022-07-31T23:05:00.890Z,15.68
2022-07-31T23:07:27.318Z,14.27
2022-07-31T23:09:53.783Z,14.90
2022-07-31T23:12:20.277Z,19.73
2022-07-31T23:14:46.693Z,15.27
2022-07-31T23:17:22.494Z,17.38
2022-07-31T23:19:53.813Z,18.70
2022-07-31T23:22:33.404Z,18.02
2022-07-31T23:25:03.348Z,15.68
2022-07-31T23:27:29.895Z,18.33
2022-07-31T23:29:56.383Z,15.32
2022-07-31T23:32:22.806Z,17.88
2022-07-31T23:34:49.214Z,16.67
2022-07-31T23:37:15.671Z,17.17
2022-07-31T23:39:42.139Z,13.43
2022-07-31T23:42:27.627Z,13.75
2022-07-31T23:44:54.126Z,11.90
2022-07-31T23:47:23.834Z,12.38
2022-07-31T23:49:50.286Z,10.55
2022-07-31T23:52:16.764Z,12.10
2022-07-31T23:54:43.183Z,12.18
2022-07-31T23:57:09.631Z,14.70
2022-07-31T23:59:36.087Z,10.63
